Time;durP1;ratioP1;P1;durP2;ratioP2;P2;SDS_P1;SDS_P2;PMS_P1;PMS_P2;Temp;Humidity;BMP_temperature;BMP_pressure;BME280_temperature;BME280_humidity;BME280_pressure;Samples;Min_cycle;Max_cycle;Signal;HPM_P1;HPM_P2
2023/04/02 00:01:53;;;;;;;0.50;0.50;;;;;;;;;;5001243;28;58189;-66
2023/04/02 00:04:21;;;;;;;0.40;0.40;;;;;;;;;;5002767;28;57858;-67
2023/04/02 00:06:48;;;;;;;0.40;0.40;;;;;;;;;;5002677;28;58234;-67
2023/04/02 00:09:13;;;;;;;2.58;1.15;;;;;;;;;;5001010;28;58360;-66
2023/04/02 00:11:42;;;;;;;0.50;0.50;;;;;;;;;;5004022;28;58219;-65
2023/04/02 00:14:26;;;;;;;0.77;0.40;;;;;;;;;;5002394;28;58277;-67
2023/04/02 00:16:52;;;;;;;0.82;0.45;;;;;;;;;;5000806;28;58222;-68
2023/04/02 00:19:24;;;;;;;0.47;0.35;;;;;;;;;;5001854;28;58109;-68
2023/04/02 00:21:49;;;;;;;0.40;0.40;;;;;;;;;;5002862;28;58263;-67
2023/04/02 00:24:16;;;;;;;0.40;0.40;;;;;;;;;;5002797;28;58245;-67
2023/04/02 00:26:43;;;;;;;1.15;0.50;;;;;;;;;;5003969;28;57947;-65
2023/04/02 00:29:10;;;;;;;0.40;0.40;;;;;;;;;;4984172;28;58853;-66
2023/04/02 00:31:36;;;;;;;1.40;0.50;;;;;;;;;;5002987;28;58129;-68
2023/04/02 00:34:03;;;;;;;0.68;0.68;;;;;;;;;;4984534;28;57888;-67
2023/04/02 00:36:29;;;;;;;1.05;0.47;;;;;;;;;;5002099;28;59553;-67
2023/04/02 00:38:57;;;;;;;0.38;0.32;;;;;;;;;;5002329;28;58276;-67
2023/04/02 00:41:25;;;;;;;0.20;0.20;;;;;;;;;;5001555;28;57547;-67
2023/04/02 00:43:51;;;;;;;2.95;0.93;;;;;;;;;;5002422;28;57975;-67
2023/04/02 00:46:20;;;;;;;0.85;0.75;;;;;;;;;;5002463;28;58148;-68
2023/04/02 00:48:57;;;;;;;0.30;0.30;;;;;;;;;;5001311;28;58843;-65
2023/04/02 00:51:24;;;;;;;0.95;0.50;;;;;;;;;;5002446;28;57618;-67
2023/04/02 00:53:51;;;;;;;0.75;0.52;;;;;;;;;;5003679;28;58039;-66
2023/04/02 00:56:24;;;;;;;0.65;0.65;;;;;;;;;;5000989;28;58399;-67
2023/04/02 00:58:50;;;;;;;0.40;0.20;;;;;;;;;;5002768;28;58068;-67
2023/04/02 01:01:21;;;;;;;0.30;0.30;;;;;;;;;;5001841;28;57942;-67
2023/04/02 01:03:57;;;;;;;0.73;0.50;;;;;;;;;;5000978;28;58513;-68
2023/04/02 01:06:42;;;;;;;0.88;0.30;;;;;;;;;;4983943;28;58406;-67
2023/04/02 01:09:08;;;;;;;0.52;0.52;;;;;;;;;;5000402;28;58373;-68
2023/04/02 01:11:51;;;;;;;0.50;0.50;;;;;;;;;;5002232;28;58020;-68
2023/04/02 01:14:35;;;;;;;0.82;0.50;;;;;;;;;;5003341;28;57733;-67
2023/04/02 01:17:07;;;;;;;0.30;0.30;;;;;;;;;;5000602;28;59678;-67
2023/04/02 01:19:32;;;;;;;0.70;0.70;;;;;;;;;;5002032;28;57625;-68
2023/04/02 01:22:13;;;;;;;0.30;0.30;;;;;;;;;;5001142;28;57991;-68
2023/04/02 01:24:38;;;;;;;0.30;0.30;;;;;;;;;;5002422;28;58075;-67
2023/04/02 01:27:07;;;;;;;0.55;0.55;;;;;;;;;;5005397;28;57917;-67
2023/04/02 01:29:32;;;;;;;;;;;;;;;;;;5005777;28;58945;-67
2023/04/02 01:32:03;;;;;;;0.50;0.50;;;;;;;;;;5005882;28;58212;-68
2023/04/02 01:34:29;;;;;;;0.47;0.40;;;;;;;;;;5005052;28;58249;-67
2023/04/02 01:37:00;;;;;;;0.40;0.40;;;;;;;;;;5005574;28;58614;-67
2023/04/02 01:39:50;;;;;;;0.40;0.40;;;;;;;;;;5004225;28;57597;-66
2023/04/02 01:42:38;;;;;;;0.50;0.50;;;;;;;;;;5005919;28;58477;-67
2023/04/02 01:45:03;;;;;;;;;;;;;;;;;;5005189;28;57693;-68
2023/04/02 01:47:29;;;;;;;0.35;0.30;;;;;;;;;;5005589;28;57905;-66
2023/04/02 01:50:17;;;;;;;0.30;0.30;;;;;;;;;;5005148;28;57999;-67
2023/04/02 01:52:43;;;;;;;0.30;0.30;;;;;;;;;;5000271;28;57901;-68
2023/04/02 01:55:11;;;;;;;0.25;0.25;;;;;;;;;;5004559;28;58300;-67
2023/04/02 01:57:37;;;;;;;0.52;0.40;;;;;;;;;;5004096;28;58037;-67
2023/04/02 02:00:08;;;;;;;0.40;0.40;;;;;;;;;;5004990;28;58140;-66
2023/04/02 02:02:34;;;;;;;1.27;0.30;;;;;;;;;;5006274;28;58256;-67
2023/04/02 02:04:59;;;;;;;0.45;0.45;;;;;;;;;;5004445;28;58689;-68
2023/04/02 02:07:27;;;;;;;0.30;0.30;;;;;;;;;;5005274;28;58153;-67
2023/04/02 02:09:52;;;;;;;0.40;0.40;;;;;;;;;;5004667;28;57969;-67
2023/04/02 02:12:17;;;;;;;0.40;0.40;;;;;;;;;;5004477;28;58030;-67
2023/04/02 02:14:47;;;;;;;0.30;0.30;;;;;;;;;;5005703;28;57878;-67
2023/04/02 02:17:17;;;;;;;0.38;0.38;;;;;;;;;;5003699;28;58123;-66
2023/04/02 02:19:42;;;;;;;0.55;0.40;;;;;;;;;;5004858;28;57933;-67
2023/04/02 02:22:20;;;;;;;0.83;0.47;;;;;;;;;;5004169;28;57931;-67
2023/04/02 02:24:46;;;;;;;0.60;0.60;;;;;;;;;;5003065;28;58703;-67
2023/04/02 02:27:17;;;;;;;0.35;0.35;;;;;;;;;;5005116;28;57883;-67
2023/04/02 02:29:44;;;;;;;0.60;0.40;;;;;;;;;;5005848;28;57903;-67
2023/04/02 02:32:10;;;;;;;0.30;0.30;;;;;;;;;;5004124;28;57673;-67
2023/04/02 02:34:41;;;;;;;0.60;0.60;;;;;;;;;;5005392;28;58718;-68
2023/04/02 02:37:23;;;;;;;0.50;0.50;;;;;;;;;;5003278;28;58751;-67
2023/04/02 02:39:52;;;;;;;0.60;0.40;;;;;;;;;;5002491;28;58171;-67
2023/04/02 02:42:23;;;;;;;0.70;0.40;;;;;;;;;;5003590;28;58000;-67
2023/04/02 02:44:49;;;;;;;0.38;0.30;;;;;;;;;;4987247;28;57577;-66
2023/04/02 02:47:21;;;;;;;0.40;0.32;;;;;;;;;;5004542;28;57880;-67
2023/04/02 02:49:48;;;;;;;0.20;0.20;;;;;;;;;;5003274;28;57958;-67
2023/04/02 02:52:32;;;;;;;0.60;0.60;;;;;;;;;;5003073;28;59425;-66
2023/04/02 02:55:00;;;;;;;0.32;0.30;;;;;;;;;;5003300;28;58752;-67
2023/04/02 02:57:27;;;;;;;0.93;0.65;;;;;;;;;;5003923;28;58161;-67
2023/04/02 02:59:53;;;;;;;0.73;0.20;;;;;;;;;;5004655;28;58343;-68
2023/04/02 03:02:19;;;;;;;0.30;0.30;;;;;;;;;;5003569;28;61079;-67
2023/04/02 03:04:45;;;;;;;0.33;0.33;;;;;;;;;;5003463;28;58158;-67
2023/04/02 03:07:12;;;;;;;0.43;0.30;;;;;;;;;;5003708;28;58219;-66
2023/04/02 03:09:46;;;;;;;0.57;0.32;;;;;;;;;;5003800;28;57872;-67
2023/04/02 03:12:23;;;;;;;0.22;0.20;;;;;;;;;;5003938;28;57709;-68
2023/04/02 03:14:53;;;;;;;0.28;0.22;;;;;;;;;;5005133;28;58232;-67
2023/04/02 03:17:21;;;;;;;0.20;0.20;;;;;;;;;;5003564;28;61049;-67
2023/04/02 03:19:51;;;;;;;0.22;0.22;;;;;;;;;;5003286;28;57367;-68
2023/04/02 03:22:28;;;;;;;0.30;0.30;;;;;;;;;;5002965;28;57931;-67
2023/04/02 03:25:00;;;;;;;0.22;0.22;;;;;;;;;;5003216;28;58234;-67
2023/04/02 03:27:31;;;;;;;0.50;0.20;;;;;;;;;;5003334;28;58413;-68
2023/04/02 03:30:00;;;;;;;0.43;0.32;;;;;;;;;;5002535;28;57981;-68
2023/04/02 03:32:28;;;;;;;0.90;0.47;;;;;;;;;;5002458;28;57957;-67
2023/04/02 03:34:58;;;;;;;0.27;0.27;;;;;;;;;;5003239;28;58339;-67
2023/04/02 03:37:28;;;;;;;0.38;0.38;;;;;;;;;;5004859;28;58096;-68
2023/04/02 03:40:07;;;;;;;0.10;0.10;;;;;;;;;;5003880;28;58168;-67
2023/04/02 03:42:44;;;;;;;1.10;0.30;;;;;;;;;;5003038;28;59039;-67
2023/04/02 03:45:09;;;;;;;0.23;0.23;;;;;;;;;;5001929;28;58201;-68
2023/04/02 03:47:37;;;;;;;0.20;0.20;;;;;;;;;;5003599;28;58031;-67
2023/04/02 03:50:05;;;;;;;0.35;0.28;;;;;;;;;;5002367;28;57981;-67
2023/04/02 03:52:30;;;;;;;;;;;;;;;;;;5003289;28;58198;-67
2023/04/02 03:54:57;;;;;;;0.20;0.20;;;;;;;;;;5002558;28;58447;-68
2023/04/02 03:57:30;;;;;;;0.63;0.35;;;;;;;;;;5002134;28;58137;-65
2023/04/02 03:59:59;;;;;;;0.25;0.17;;;;;;;;;;5002803;28;57881;-67
2023/04/02 04:02:42;;;;;;;0.30;0.20;;;;;;;;;;5002580;28;58173;-67
2023/04/02 04:05:19;;;;;;;0.30;0.30;;;;;;;;;;5001825;28;58595;-67
2023/04/02 04:07:44;;;;;;;0.35;0.22;;;;;;;;;;5002177;28;57872;-67
2023/04/02 04:10:16;;;;;;;0.20;0.20;;;;;;;;;;4984785;28;59448;-67
2023/04/02 04:12:44;;;;;;;0.10;0.10;;;;;;;;;;5003050;28;58328;-67
2023/04/02 04:15:20;;;;;;;0.20;0.20;;;;;;;;;;5002740;28;58476;-67
2023/04/02 04:17:52;;;;;;;0.20;0.20;;;;;;;;;;5002675;28;57967;-67
2023/04/02 04:20:24;;;;;;;0.35;0.20;;;;;;;;;;5002486;28;58806;-68
2023/04/02 04:22:54;;;;;;;0.20;0.20;;;;;;;;;;5002399;28;58140;-67
2023/04/02 04:25:21;;;;;;;0.10;0.10;;;;;;;;;;5003445;28;58040;-67
2023/04/02 04:27:56;;;;;;;0.30;0.30;;;;;;;;;;5002713;28;58459;-67
2023/04/02 04:30:27;;;;;;;0.40;0.40;;;;;;;;;;5001206;28;58106;-67
2023/04/02 04:32:56;;;;;;;0.10;0.10;;;;;;;;;;5002407;28;57760;-67
2023/04/02 04:35:28;;;;;;;0.28;0.28;;;;;;;;;;5002616;28;57962;-67
2023/04/02 04:37:57;;;;;;;0.82;0.30;;;;;;;;;;5003242;28;58689;-67
2023/04/02 04:40:24;;;;;;;0.10;0.10;;;;;;;;;;5002175;28;58101;-68
2023/04/02 04:42:52;;;;;;;0.20;0.20;;;;;;;;;;5002166;28;58700;-67
2023/04/02 04:45:35;;;;;;;0.22;0.22;;;;;;;;;;5003408;28;57558;-67
2023/04/02 04:48:05;;;;;;;0.30;0.25;;;;;;;;;;5002713;28;58442;-68
2023/04/02 04:50:54;;;;;;;0.63;0.20;;;;;;;;;;5003040;28;58248;-68
2023/04/02 04:53:20;;;;;;;0.38;0.30;;;;;;;;;;4993194;28;62830;-67
2023/04/02 04:55:46;;;;;;;0.40;0.35;;;;;;;;;;5001997;28;57428;-66
2023/04/02 04:58:16;;;;;;;0.25;0.20;;;;;;;;;;5003026;28;59292;-67
2023/04/02 05:00:57;;;;;;;0.40;0.13;;;;;;;;;;5001329;28;58533;-67
2023/04/02 05:03:29;;;;;;;1.10;0.50;;;;;;;;;;5002175;28;58406;-67
2023/04/02 05:05:58;;;;;;;0.20;0.10;;;;;;;;;;5002637;28;58270;-68
2023/04/02 05:08:31;;;;;;;0.40;0.20;;;;;;;;;;5003311;28;57867;-68
2023/04/02 05:10:56;;;;;;;0.25;0.22;;;;;;;;;;5002636;28;58042;-67
2023/04/02 05:13:21;;;;;;;0.50;0.20;;;;;;;;;;5002172;28;57974;-67
2023/04/02 05:15:53;;;;;;;0.10;0.10;;;;;;;;;;5001672;28;58190;-68
2023/04/02 05:18:22;;;;;;;0.40;0.20;;;;;;;;;;5001291;28;58298;-67
2023/04/02 05:20:47;;;;;;;;;;;;;;;;;;5001583;28;58761;-66
2023/04/02 05:23:15;;;;;;;0.40;0.20;;;;;;;;;;5002218;28;58186;-67
2023/04/02 05:26:06;;;;;;;0.30;0.30;;;;;;;;;;5002123;28;58098;-67
2023/04/02 05:28:35;;;;;;;0.47;0.40;;;;;;;;;;5000508;28;58696;-67
2023/04/02 05:31:10;;;;;;;0.10;0.10;;;;;;;;;;5001554;28;58090;-67
2023/04/02 05:33:36;;;;;;;0.20;0.20;;;;;;;;;;5000952;28;58909;-67
2023/04/02 05:36:01;;;;;;;0.27;0.27;;;;;;;;;;5002802;28;58187;-67
2023/04/02 05:38:27;;;;;;;0.10;0.10;;;;;;;;;;5003406;28;58483;-67
2023/04/02 05:40:58;;;;;;;0.63;0.25;;;;;;;;;;5001266;28;58192;-67
2023/04/02 05:43:24;;;;;;;0.20;0.20;;;;;;;;;;5002299;28;58014;-68
2023/04/02 05:45:51;;;;;;;0.20;0.20;;;;;;;;;;5001013;28;57953;-68
2023/04/02 05:48:19;;;;;;;0.20;0.20;;;;;;;;;;4983320;28;58815;-68
2023/04/02 05:50:47;;;;;;;0.50;0.45;;;;;;;;;;5003470;28;58259;-67
2023/04/02 05:53:24;;;;;;;0.65;0.22;;;;;;;;;;5001311;28;58269;-68
2023/04/02 05:55:56;;;;;;;0.38;0.20;;;;;;;;;;5000893;28;57904;-68
2023/04/02 05:58:30;;;;;;;0.13;0.13;;;;;;;;;;5000399;28;58340;-68
2023/04/02 06:01:11;;;;;;;0.75;0.30;;;;;;;;;;4999501;28;58842;-68
2023/04/02 06:03:44;;;;;;;0.30;0.30;;;;;;;;;;5000967;28;58320;-67
2023/04/02 06:06:13;;;;;;;0.20;0.20;;;;;;;;;;5000114;28;58582;-67
2023/04/02 06:08:44;;;;;;;0.40;0.30;;;;;;;;;;5000723;28;57833;-68
2023/04/02 06:11:11;;;;;;;0.20;0.20;;;;;;;;;;5000673;28;58237;-67
2023/04/02 06:13:36;;;;;;;0.40;0.20;;;;;;;;;;5001258;28;57578;-65
2023/04/02 06:16:01;;;;;;;0.10;0.10;;;;;;;;;;5002967;28;58580;-67
2023/04/02 06:18:31;;;;;;;0.30;0.30;;;;;;;;;;5003609;28;58174;-67
2023/04/02 06:20:56;;;;;;;0.30;0.30;;;;;;;;;;5003349;28;58268;-67
2023/04/02 06:23:31;;;;;;;0.30;0.20;;;;;;;;;;5004000;28;58160;-68
2023/04/02 06:26:02;;;;;;;0.28;0.22;;;;;;;;;;5002775;28;58230;-67
2023/04/02 06:28:32;;;;;;;0.75;0.43;;;;;;;;;;5001202;28;57741;-67
2023/04/02 06:30:59;;;;;;;0.45;0.43;;;;;;;;;;5002902;28;58055;-67
2023/04/02 06:33:24;;;;;;;0.32;0.20;;;;;;;;;;5003363;28;58358;-67
2023/04/02 06:35:51;;;;;;;0.10;0.10;;;;;;;;;;5002518;28;58644;-67
2023/04/02 06:38:18;;;;;;;0.20;0.20;;;;;;;;;;5004210;28;58258;-67
2023/04/02 06:40:51;;;;;;;0.40;0.20;;;;;;;;;;5002685;28;59517;-67
2023/04/02 06:43:25;;;;;;;0.30;0.30;;;;;;;;;;5002572;28;58097;-67
2023/04/02 06:45:52;;;;;;;0.50;0.22;;;;;;;;;;5002674;28;58270;-68
2023/04/02 06:48:18;;;;;;;0.20;0.20;;;;;;;;;;5002842;28;57997;-66
2023/04/02 06:51:03;;;;;;;0.10;0.10;;;;;;;;;;5003512;28;58383;-67
2023/04/02 06:53:33;;;;;;;0.20;0.20;;;;;;;;;;5003165;28;61199;-67
2023/04/02 06:55:58;;;;;;;0.30;0.20;;;;;;;;;;4999919;28;58535;-67
2023/04/02 06:58:23;;;;;;;0.30;0.30;;;;;;;;;;5003583;28;58123;-67
2023/04/02 07:00:48;;;;;;;0.35;0.35;;;;;;;;;;5002662;28;58406;-67
2023/04/02 07:03:16;;;;;;;0.10;0.10;;;;;;;;;;5002030;28;58494;-67
2023/04/02 07:05:42;;;;;;;0.20;0.20;;;;;;;;;;5000953;28;58223;-67
2023/04/02 07:08:07;;;;;;;0.50;0.50;;;;;;;;;;5004679;28;58480;-67
2023/04/02 07:10:32;;;;;;;0.77;0.50;;;;;;;;;;5006813;28;57618;-67
2023/04/02 07:12:57;;;;;;;4.25;0.25;;;;;;;;;;5006712;28;58492;-67
2023/04/02 07:15:24;;;;;;;0.10;0.10;;;;;;;;;;4998015;28;58282;-69
2023/04/02 07:17:50;;;;;;;0.20;0.20;;;;;;;;;;4997824;28;58331;-66
2023/04/02 07:20:27;;;;;;;0.30;0.30;;;;;;;;;;4995789;28;58010;-67
2023/04/02 07:22:52;;;;;;;0.38;0.10;;;;;;;;;;5000344;28;58015;-67
2023/04/02 07:25:17;;;;;;;0.20;0.10;;;;;;;;;;5004310;28;57929;-68
2023/04/02 07:27:42;;;;;;;0.10;0.10;;;;;;;;;;5004071;28;58507;-67
2023/04/02 07:30:08;;;;;;;0.10;0.10;;;;;;;;;;5004212;28;58009;-68
2023/04/02 07:32:33;;;;;;;0.15;0.15;;;;;;;;;;5004964;28;58370;-67
2023/04/02 07:34:58;;;;;;;0.40;0.30;;;;;;;;;;5005570;28;57887;-67
2023/04/02 07:37:23;;;;;;;0.43;0.20;;;;;;;;;;5004875;28;58171;-68
2023/04/02 07:39:48;;;;;;;0.52;0.20;;;;;;;;;;5002858;28;58296;-67
2023/04/02 07:42:14;;;;;;;0.10;0.10;;;;;;;;;;5003938;28;58401;-67
2023/04/02 07:44:39;;;;;;;0.20;0.20;;;;;;;;;;5004433;28;59862;-68
2023/04/02 07:47:04;;;;;;;1.40;0.10;;;;;;;;;;5000006;28;58321;-66
2023/04/02 07:49:29;;;;;;;0.15;0.10;;;;;;;;;;5002042;28;58126;-66
2023/04/02 07:51:54;;;;;;;2.33;0.73;;;;;;;;;;5002142;28;57608;-69
2023/04/02 07:54:20;;;;;;;0.83;0.63;;;;;;;;;;5003642;28;58326;-67
2023/04/02 07:56:45;;;;;;;1.45;0.73;;;;;;;;;;5010759;22;57836;-70
2023/04/02 07:59:10;;;;;;;1.83;0.30;;;;;;;;;;4982760;28;58419;-69
2023/04/02 08:01:35;;;;;;;1.80;1.03;;;;;;;;;;4982281;28;58171;-69
2023/04/02 08:04:02;;;;;;;3.70;0.30;;;;;;;;;;4982898;28;58220;-67
2023/04/02 08:06:28;;;;;;;1.33;0.28;;;;;;;;;;4982601;28;58357;-66
2023/04/02 08:08:53;;;;;;;10.75;1.65;;;;;;;;;;4982715;28;58422;-66
2023/04/02 08:11:18;;;;;;;11.17;0.50;;;;;;;;;;4984796;28;57796;-67
2023/04/02 08:13:44;;;;;;;6.13;0.88;;;;;;;;;;4980715;28;58174;-66
2023/04/02 08:16:09;;;;;;;2.58;1.15;;;;;;;;;;4981756;28;58065;-68
2023/04/02 08:18:34;;;;;;;2.53;0.60;;;;;;;;;;4983405;28;57987;-67
2023/04/02 08:21:00;;;;;;;3.35;1.05;;;;;;;;;;4981947;28;58306;-66
2023/04/02 08:23:25;;;;;;;5.00;0.73;;;;;;;;;;4983424;28;57748;-66
2023/04/02 08:25:52;;;;;;;5.18;0.43;;;;;;;;;;4981450;28;57816;-67
2023/04/02 08:28:17;;;;;;;1.95;0.95;;;;;;;;;;4978135;28;57850;-69
2023/04/02 08:30:43;;;;;;;2.45;0.40;;;;;;;;;;4982331;28;58006;-67
2023/04/02 08:33:08;;;;;;;2.55;0.28;;;;;;;;;;4979985;28;59377;-68
2023/04/02 08:35:33;;;;;;;3.03;0.65;;;;;;;;;;4980911;28;57990;-67
2023/04/02 08:37:58;;;;;;;2.60;0.30;;;;;;;;;;4980533;28;58485;-67
2023/04/02 08:40:25;;;;;;;1.37;0.50;;;;;;;;;;4981344;28;58064;-67
2023/04/02 08:43:00;;;;;;;3.05;0.43;;;;;;;;;;4981916;28;57854;-67
2023/04/02 08:45:44;;;;;;;1.35;1.25;;;;;;;;;;4981322;28;58065;-67
2023/04/02 08:48:11;;;;;;;2.17;0.70;;;;;;;;;;4982364;28;58471;-70
2023/04/02 08:50:38;;;;;;;5.32;0.30;;;;;;;;;;4992756;28;58763;-71
2023/04/02 08:53:06;;;;;;;0.45;0.28;;;;;;;;;;4995055;28;59564;-71
2023/04/02 08:55:41;;;;;;;1.30;0.47;;;;;;;;;;4993715;28;58727;-70
2023/04/02 08:58:24;;;;;;;2.13;0.40;;;;;;;;;;5002193;22;58167;-66
2023/04/02 09:00:52;;;;;;;4.32;0.73;;;;;;;;;;4975037;28;57962;-71
2023/04/02 09:03:19;;;;;;;2.47;0.47;;;;;;;;;;4975930;28;58762;-69
2023/04/02 09:05:45;;;;;;;9.15;0.80;;;;;;;;;;4975934;28;58334;-68
2023/04/02 09:08:16;;;;;;;4.97;0.50;;;;;;;;;;4971749;28;60853;-68
2023/04/02 09:10:43;;;;;;;2.65;0.38;;;;;;;;;;4972019;28;58244;-68
2023/04/02 09:13:26;;;;;;;7.65;0.73;;;;;;;;;;4968929;28;59575;-66
2023/04/02 09:16:20;;;;;;;2.38;1.05;;;;;;;;;;4972619;28;57942;-68
2023/04/02 09:18:46;;;;;;;1.90;0.50;;;;;;;;;;4972222;28;58334;-67
2023/04/02 09:21:20;;;;;;;3.53;0.68;;;;;;;;;;4971672;28;57866;-68
2023/04/02 09:23:45;;;;;;;4.72;0.73;;;;;;;;;;4972838;28;58139;-67
2023/04/02 09:26:27;;;;;;;1.20;0.20;;;;;;;;;;4971544;28;58453;-67
2023/04/02 09:28:58;;;;;;;5.05;0.35;;;;;;;;;;4971853;28;58555;-67
2023/04/02 09:31:34;;;;;;;5.90;1.25;;;;;;;;;;4973783;28;58026;-67
2023/04/02 09:34:00;;;;;;;3.40;1.13;;;;;;;;;;4972203;28;58421;-67
2023/04/02 09:36:33;;;;;;;3.28;0.75;;;;;;;;;;4972618;28;58078;-67
2023/04/02 09:39:18;;;;;;;3.58;0.95;;;;;;;;;;4972601;28;59308;-67
2023/04/02 09:41:44;;;;;;;3.90;1.05;;;;;;;;;;4971936;28;59091;-70
2023/04/02 09:44:11;;;;;;;0.50;0.20;;;;;;;;;;4973293;28;57829;-72
2023/04/02 09:46:36;;;;;;;2.72;0.68;;;;;;;;;;4972937;28;59132;-72
2023/04/02 09:49:01;;;;;;;3.93;0.50;;;;;;;;;;4973429;28;58147;-69
2023/04/02 09:51:28;;;;;;;2.70;1.10;;;;;;;;;;4958211;28;58955;-71
2023/04/02 09:54:03;;;;;;;1.85;0.43;;;;;;;;;;4954567;28;59377;-71
2023/04/02 09:56:35;;;;;;;1.38;0.90;;;;;;;;;;4954902;28;58094;-68
2023/04/02 09:59:02;;;;;;;2.28;0.95;;;;;;;;;;4955790;28;58160;-68
2023/04/02 10:01:32;;;;;;;1.60;0.22;;;;;;;;;;4954077;28;59453;-68
2023/04/02 10:03:58;;;;;;;2.88;0.30;;;;;;;;;;4954865;28;58068;-68
2023/04/02 10:06:23;;;;;;;2.95;0.50;;;;;;;;;;4953708;28;58234;-68
2023/04/02 10:08:49;;;;;;;1.38;0.43;;;;;;;;;;4956996;28;58058;-68
2023/04/02 10:11:23;;;;;;;4.07;0.60;;;;;;;;;;4955540;28;58457;-68
2023/04/02 10:13:53;;;;;;;1.38;0.40;;;;;;;;;;4956162;28;58476;-68
2023/04/02 10:16:31;;;;;;;6.90;0.80;;;;;;;;;;4955029;28;60919;-67
2023/04/02 10:18:57;;;;;;;0.65;0.30;;;;;;;;;;4956587;28;58021;-68
2023/04/02 10:21:34;;;;;;;1.83;0.55;;;;;;;;;;4954655;28;59306;-66
2023/04/02 10:24:01;;;;;;;2.95;1.23;;;;;;;;;;4955112;28;58095;-67
2023/04/02 10:26:29;;;;;;;5.05;1.02;;;;;;;;;;4958725;28;58420;-66
2023/04/02 10:29:08;;;;;;;0.80;0.38;;;;;;;;;;4955697;28;57844;-67
2023/04/02 10:31:52;;;;;;;8.63;0.63;;;;;;;;;;4953082;28;58398;-67
2023/04/02 10:34:32;;;;;;;0.85;0.57;;;;;;;;;;4953145;28;58444;-67
2023/04/02 10:37:02;;;;;;;5.55;0.70;;;;;;;;;;4952936;28;59022;-67
2023/04/02 10:39:37;;;;;;;3.40;1.33;;;;;;;;;;4956515;28;58777;-67
2023/04/02 10:42:08;;;;;;;0.82;0.60;;;;;;;;;;4953872;28;57925;-67
2023/04/02 10:44:55;;;;;;;1.88;0.40;;;;;;;;;;4956734;28;58328;-66
2023/04/02 10:47:36;;;;;;;1.95;0.80;;;;;;;;;;4955273;28;61141;-67
2023/04/02 10:50:14;;;;;;;0.35;0.20;;;;;;;;;;4954464;28;58083;-68
2023/04/02 10:52:50;;;;;;;0.47;0.20;;;;;;;;;;4954276;28;58277;-67
2023/04/02 10:55:17;;;;;;;0.80;0.20;;;;;;;;;;4965670;28;59441;-68
2023/04/02 10:57:43;;;;;;;0.85;0.20;;;;;;;;;;4953858;28;59324;-67
2023/04/02 11:00:17;;;;;;;0.57;0.20;;;;;;;;;;4952571;28;58549;-67
2023/04/02 11:03:04;;;;;;;0.93;0.30;;;;;;;;;;4956065;28;57965;-67
2023/04/02 11:05:36;;;;;;;0.47;0.30;;;;;;;;;;4954886;28;57831;-67
2023/04/02 11:08:22;;;;;;;1.83;0.20;;;;;;;;;;4953291;28;57967;-67
2023/04/02 11:10:54;;;;;;;0.73;0.30;;;;;;;;;;4953732;28;58236;-67
2023/04/02 11:13:23;;;;;;;0.22;0.10;;;;;;;;;;4954961;28;58795;-67
2023/04/02 11:15:48;;;;;;;0.65;0.38;;;;;;;;;;4954788;28;58260;-67
2023/04/02 11:18:34;;;;;;;0.40;0.40;;;;;;;;;;4952859;28;58829;-67
2023/04/02 11:21:04;;;;;;;1.70;0.30;;;;;;;;;;4955493;28;58259;-67
2023/04/02 11:23:49;;;;;;;0.63;0.40;;;;;;;;;;4955324;28;58145;-66
2023/04/02 11:26:33;;;;;;;0.03;0.00;;;;;;;;;;4954275;28;58148;-67
2023/04/02 11:29:22;;;;;;;0.93;0.20;;;;;;;;;;4955046;28;57905;-68
2023/04/02 11:31:48;;;;;;;0.57;0.17;;;;;;;;;;4949306;28;59371;-67
2023/04/02 11:34:14;;;;;;;0.05;0.03;;;;;;;;;;4953902;28;58297;-67
2023/04/02 11:36:49;;;;;;;0.25;0.17;;;;;;;;;;4954761;28;58192;-67
2023/04/02 11:39:34;;;;;;;0.68;0.63;;;;;;;;;;4954484;28;58597;-67
2023/04/02 11:42:01;;;;;;;0.80;0.20;;;;;;;;;;4956014;28;58679;-68
2023/04/02 11:44:26;;;;;;;0.32;0.20;;;;;;;;;;4954809;28;57997;-67
2023/04/02 11:46:51;;;;;;;0.10;0.10;;;;;;;;;;4951651;28;58171;-67
2023/04/02 11:49:34;;;;;;;0.30;0.30;;;;;;;;;;4954984;28;58316;-68
2023/04/02 11:52:00;;;;;;;0.35;0.20;;;;;;;;;;4953909;28;58052;-67
2023/04/02 11:54:27;;;;;;;1.77;0.20;;;;;;;;;;4952835;28;58111;-68
2023/04/02 11:56:59;;;;;;;0.63;0.20;;;;;;;;;;4954731;28;58287;-67
2023/04/02 11:59:30;;;;;;;0.47;0.30;;;;;;;;;;4953077;28;63918;-67
2023/04/02 12:01:55;;;;;;;0.30;0.10;;;;;;;;;;4954434;28;58309;-72
2023/04/02 12:04:28;;;;;;;5.97;1.10;;;;;;;;;;4955316;28;59267;-72
2023/04/02 12:07:16;;;;;;;2.03;1.08;;;;;;;;;;4998954;22;58338;-71
2023/04/02 12:09:48;;;;;;;5.75;0.45;;;;;;;;;;4983014;28;58125;-71
2023/04/02 12:12:22;;;;;;;7.28;0.40;;;;;;;;;;4979691;28;58416;-72
2023/04/02 12:14:48;;;;;;;2.13;1.02;;;;;;;;;;4984206;28;57915;-73
2023/04/02 12:17:25;;;;;;;1.65;0.43;;;;;;;;;;4982201;28;58281;-69
2023/04/02 12:19:52;;;;;;;4.93;0.77;;;;;;;;;;4980545;28;60662;-71
2023/04/02 12:22:19;;;;;;;4.03;0.75;;;;;;;;;;4981559;28;58241;-73
2023/04/02 12:24:45;;;;;;;1.95;0.30;;;;;;;;;;4980520;28;58310;-69
2023/04/02 12:27:21;;;;;;;5.20;0.40;;;;;;;;;;4980408;28;57920;-68
2023/04/02 12:29:46;;;;;;;0.93;0.50;;;;;;;;;;4981767;28;57964;-69
2023/04/02 12:32:18;;;;;;;2.53;0.70;;;;;;;;;;4980704;28;58414;-76
2023/04/02 12:34:44;;;;;;;3.40;0.60;;;;;;;;;;4981009;28;57907;-68
2023/04/02 12:37:18;;;;;;;5.90;1.00;;;;;;;;;;4983940;28;58226;-69
2023/04/02 12:39:50;;;;;;;4.65;0.70;;;;;;;;;;4982955;28;57947;-69
2023/04/02 12:42:31;;;;;;;2.13;0.63;;;;;;;;;;4981556;28;57847;-68
2023/04/02 12:44:56;;;;;;;4.38;0.90;;;;;;;;;;4983286;28;57944;-68
2023/04/02 12:47:22;;;;;;;7.50;1.05;;;;;;;;;;4982955;28;58137;-66
2023/04/02 12:49:47;;;;;;;5.82;1.77;;;;;;;;;;4982967;28;58203;-66
2023/04/02 12:52:17;;;;;;;5.88;0.98;;;;;;;;;;4983432;28;58219;-65
2023/04/02 12:54:47;;;;;;;2.88;0.65;;;;;;;;;;4984270;28;58595;-63
2023/04/02 12:57:29;;;;;;;5.32;2.10;;;;;;;;;;4983818;28;59257;-65
2023/04/02 12:59:55;;;;;;;5.80;0.82;;;;;;;;;;4983792;28;57820;-66
2023/04/02 13:02:22;;;;;;;7.38;1.27;;;;;;;;;;4984625;28;57761;-65
2023/04/02 13:04:55;;;;;;;5.47;1.17;;;;;;;;;;4982677;28;58200;-66
2023/04/02 13:07:22;;;;;;;4.35;0.82;;;;;;;;;;4981161;28;57908;-66
2023/04/02 13:09:51;;;;;;;6.75;1.60;;;;;;;;;;4983392;28;58212;-66
2023/04/02 13:12:24;;;;;;;4.57;1.20;;;;;;;;;;4982312;28;57855;-64
2023/04/02 13:14:53;;;;;;;4.40;1.02;;;;;;;;;;4982187;28;58173;-65
2023/04/02 13:17:39;;;;;;;5.05;1.10;;;;;;;;;;4981744;28;58220;-65
2023/04/02 13:20:23;;;;;;;6.28;1.17;;;;;;;;;;4981837;28;58652;-64
2023/04/02 13:22:48;;;;;;;6.05;1.10;;;;;;;;;;4984790;28;58207;-65
2023/04/02 13:25:13;;;;;;;6.17;1.40;;;;;;;;;;4985620;28;58110;-65
2023/04/02 13:27:38;;;;;;;6.87;1.70;;;;;;;;;;4985344;28;58192;-64
2023/04/02 13:30:18;;;;;;;10.60;2.17;;;;;;;;;;4986421;28;58238;-65
2023/04/02 13:32:43;;;;;;;6.18;1.10;;;;;;;;;;4985109;28;57623;-64
2023/04/02 13:35:08;;;;;;;7.28;1.25;;;;;;;;;;4986027;28;58324;-65
2023/04/02 13:37:33;;;;;;;3.97;1.30;;;;;;;;;;4985642;28;58294;-64
2023/04/02 13:39:58;;;;;;;5.38;1.20;;;;;;;;;;4986768;28;58039;-65
2023/04/02 13:42:23;;;;;;;5.22;1.23;;;;;;;;;;4985890;28;57728;-65
2023/04/02 13:44:48;;;;;;;5.85;1.23;;;;;;;;;;4985792;28;57540;-64
2023/04/02 13:47:14;;;;;;;8.37;1.23;;;;;;;;;;4987367;28;58402;-64
2023/04/02 13:49:39;;;;;;;3.97;1.15;;;;;;;;;;4985484;28;58232;-64
2023/04/02 13:52:09;;;;;;;3.00;1.58;;;;;;;;;;4986256;28;57998;-64
2023/04/02 13:54:45;;;;;;;6.40;1.25;;;;;;;;;;4985707;28;58587;-65
2023/04/02 13:57:11;;;;;;;4.13;0.98;;;;;;;;;;4986089;28;58603;-64
2023/04/02 13:59:36;;;;;;;1.90;0.70;;;;;;;;;;4987241;28;58226;-64
2023/04/02 14:02:05;;;;;;;5.87;1.27;;;;;;;;;;4987420;28;58057;-64
2023/04/02 14:04:31;;;;;;;4.47;1.25;;;;;;;;;;4987252;28;58387;-65
2023/04/02 14:07:10;;;;;;;2.17;0.80;;;;;;;;;;4985647;28;58093;-66
2023/04/02 14:09:53;;;;;;;3.80;1.58;;;;;;;;;;4986378;28;58023;-65
2023/04/02 14:12:37;;;;;;;3.50;0.73;;;;;;;;;;4988134;28;58202;-62
2023/04/02 14:15:24;;;;;;;5.03;1.08;;;;;;;;;;4987508;28;58478;-65
2023/04/02 14:17:58;;;;;;;7.10;0.77;;;;;;;;;;4984499;28;58152;-64
2023/04/02 14:20:30;;;;;;;3.90;1.17;;;;;;;;;;4984489;28;60930;-65
2023/04/02 14:23:14;;;;;;;1.23;0.80;;;;;;;;;;4983884;28;59523;-65
2023/04/02 14:25:48;;;;;;;2.70;0.68;;;;;;;;;;4983473;28;58322;-65
2023/04/02 14:28:19;;;;;;;2.88;0.95;;;;;;;;;;4982509;28;58904;-65
2023/04/02 14:31:03;;;;;;;2.83;0.77;;;;;;;;;;4985053;28;57745;-64
2023/04/02 14:33:36;;;;;;;3.38;0.93;;;;;;;;;;4983070;28;57786;-64
2023/04/02 14:36:04;;;;;;;1.95;0.98;;;;;;;;;;4984919;28;58254;-64
2023/04/02 14:38:36;;;;;;;3.47;0.40;;;;;;;;;;4983947;28;58274;-64
2023/04/02 14:41:08;;;;;;;0.93;0.60;;;;;;;;;;4989300;28;58122;-65
2023/04/02 14:43:40;;;;;;;4.43;1.25;;;;;;;;;;4984703;28;58119;-65
2023/04/02 14:46:06;;;;;;;4.25;0.80;;;;;;;;;;4985152;28;57563;-65
2023/04/02 14:48:40;;;;;;;4.10;0.98;;;;;;;;;;4984967;28;58452;-65
2023/04/02 14:51:14;;;;;;;1.90;0.45;;;;;;;;;;4984464;28;58019;-66
2023/04/02 14:53:40;;;;;;;1.70;0.60;;;;;;;;;;4986377;28;59002;-62
2023/04/02 14:56:07;;;;;;;4.50;0.50;;;;;;;;;;4983476;28;59611;-68
2023/04/02 14:58:35;;;;;;;1.15;0.60;;;;;;;;;;4983589;28;58616;-67
2023/04/02 15:01:19;;;;;;;3.40;1.55;;;;;;;;;;4983916;28;58597;-62
2023/04/02 15:03:48;;;;;;;1.92;0.52;;;;;;;;;;4981823;28;58443;-67